sensor_id;sensor_type;location;lat;lon;timestamp;P1;durP1;ratioP1;P2;durP2;ratioP2
4810;SDS011;2419;51.276;6.472;2023-12-14T00:00:31;42.37;;;14.47;;
4810;SDS011;2419;51.276;6.472;2023-12-14T00:02:59;31.27;;;14.50;;
4810;SDS011;2419;51.276;6.472;2023-12-14T00:05:27;27.60;;;10.83;;
4810;SDS011;2419;51.276;6.472;2023-12-14T00:07:55;28.80;;;10.30;;
4810;SDS011;2419;51.276;6.472;2023-12-14T00:10:23;22.60;;;9.13;;
4810;SDS011;2419;51.276;6.472;2023-12-14T00:12:51;17.23;;;8.40;;
4810;SDS011;2419;51.276;6.472;2023-12-14T00:15:21;18.90;;;8.53;;
4810;SDS011;2419;51.276;6.472;2023-12-14T00:17:51;17.07;;;7.90;;
4810;SDS011;2419;51.276;6.472;2023-12-14T00:20:19;20.10;;;8.40;;
4810;SDS011;2419;51.276;6.472;2023-12-14T00:22:47;26.47;;;9.27;;
4810;SDS011;2419;51.276;6.472;2023-12-14T00:25:15;20.87;;;9.80;;
4810;SDS011;2419;51.276;6.472;2023-12-14T00:27:43;21.10;;;10.00;;
4810;SDS011;2419;51.276;6.472;2023-12-14T00:30:11;35.47;;;11.07;;
4810;SDS011;2419;51.276;6.472;2023-12-14T00:32:41;25.10;;;11.57;;
4810;SDS011;2419;51.276;6.472;2023-12-14T00:35:10;31.27;;;11.63;;
4810;SDS011;2419;51.276;6.472;2023-12-14T00:37:38;39.77;;;12.63;;
4810;SDS011;2419;51.276;6.472;2023-12-14T00:40:07;35.33;;;13.63;;
4810;SDS011;2419;51.276;6.472;2023-12-14T00:42:35;31.53;;;13.73;;
4810;SDS011;2419;51.276;6.472;2023-12-14T00:45:03;42.63;;;13.50;;
4810;SDS011;2419;51.276;6.472;2023-12-14T00:47:32;36.73;;;13.60;;
4810;SDS011;2419;51.276;6.472;2023-12-14T00:50:00;35.13;;;13.20;;
4810;SDS011;2419;51.276;6.472;2023-12-14T00:52:30;39.40;;;13.83;;
4810;SDS011;2419;51.276;6.472;2023-12-14T00:54:58;31.70;;;13.27;;
4810;SDS011;2419;51.276;6.472;2023-12-14T00:57:26;33.73;;;13.30;;
4810;SDS011;2419;51.276;6.472;2023-12-14T00:59:54;31.53;;;12.83;;
4810;SDS011;2419;51.276;6.472;2023-12-14T01:02:22;41.00;;;13.60;;
4810;SDS011;2419;51.276;6.472;2023-12-14T01:04:50;41.90;;;14.53;;
4810;SDS011;2419;51.276;6.472;2023-12-14T01:07:18;35.00;;;12.30;;
4810;SDS011;2419;51.276;6.472;2023-12-14T01:09:48;34.40;;;11.67;;
4810;SDS011;2419;51.276;6.472;2023-12-14T01:12:16;30.73;;;12.93;;
4810;SDS011;2419;51.276;6.472;2023-12-14T01:14:44;35.73;;;12.50;;
4810;SDS011;2419;51.276;6.472;2023-12-14T01:17:12;34.43;;;13.10;;
4810;SDS011;2419;51.276;6.472;2023-12-14T01:19:40;41.57;;;14.47;;
4810;SDS011;2419;51.276;6.472;2023-12-14T01:22:08;41.20;;;13.63;;
4810;SDS011;2419;51.276;6.472;2023-12-14T01:24:36;35.87;;;14.73;;
4810;SDS011;2419;51.276;6.472;2023-12-14T01:27:05;36.47;;;13.83;;
4810;SDS011;2419;51.276;6.472;2023-12-14T01:29:35;39.17;;;13.13;;
4810;SDS011;2419;51.276;6.472;2023-12-14T01:32:03;35.27;;;12.83;;
4810;SDS011;2419;51.276;6.472;2023-12-14T01:34:32;33.33;;;11.93;;
4810;SDS011;2419;51.276;6.472;2023-12-14T01:37:00;33.50;;;15.20;;
4810;SDS011;2419;51.276;6.472;2023-12-14T01:39:28;34.83;;;13.10;;
4810;SDS011;2419;51.276;6.472;2023-12-14T01:41:56;29.70;;;12.80;;
4810;SDS011;2419;51.276;6.472;2023-12-14T01:44:26;27.47;;;11.97;;
4810;SDS011;2419;51.276;6.472;2023-12-14T01:46:54;27.43;;;11.80;;
4810;SDS011;2419;51.276;6.472;2023-12-14T01:49:22;37.87;;;14.80;;
4810;SDS011;2419;51.276;6.472;2023-12-14T01:51:50;29.80;;;12.80;;
4810;SDS011;2419;51.276;6.472;2023-12-14T01:54:18;41.07;;;15.23;;
4810;SDS011;2419;51.276;6.472;2023-12-14T01:56:46;38.50;;;14.90;;
4810;SDS011;2419;51.276;6.472;2023-12-14T01:59:14;42.47;;;14.70;;
4810;SDS011;2419;51.276;6.472;2023-12-14T02:01:44;35.70;;;14.97;;
4810;SDS011;2419;51.276;6.472;2023-12-14T02:04:13;36.40;;;15.23;;
4810;SDS011;2419;51.276;6.472;2023-12-14T02:06:42;35.33;;;14.83;;
4810;SDS011;2419;51.276;6.472;2023-12-14T02:09:10;34.57;;;14.80;;
4810;SDS011;2419;51.276;6.472;2023-12-14T02:11:38;35.90;;;15.87;;
4810;SDS011;2419;51.276;6.472;2023-12-14T02:14:06;36.40;;;15.73;;
4810;SDS011;2419;51.276;6.472;2023-12-14T02:16:36;39.07;;;15.47;;
4810;SDS011;2419;51.276;6.472;2023-12-14T02:19:06;37.47;;;15.57;;
4810;SDS011;2419;51.276;6.472;2023-12-14T02:21:35;44.63;;;17.10;;
4810;SDS011;2419;51.276;6.472;2023-12-14T02:24:04;40.27;;;17.53;;
4810;SDS011;2419;51.276;6.472;2023-12-14T02:26:32;45.83;;;17.97;;
4810;SDS011;2419;51.276;6.472;2023-12-14T02:29:00;42.93;;;18.00;;
4810;SDS011;2419;51.276;6.472;2023-12-14T02:31:28;44.20;;;18.97;;
4810;SDS011;2419;51.276;6.472;2023-12-14T02:33:57;52.30;;;18.93;;
4810;SDS011;2419;51.276;6.472;2023-12-14T02:36:25;62.00;;;20.03;;
4810;SDS011;2419;51.276;6.472;2023-12-14T02:38:53;52.13;;;20.47;;
4810;SDS011;2419;51.276;6.472;2023-12-14T02:41:22;53.10;;;21.77;;
4810;SDS011;2419;51.276;6.472;2023-12-14T02:43:50;53.77;;;19.80;;
4810;SDS011;2419;51.276;6.472;2023-12-14T02:46:18;44.57;;;18.60;;
4810;SDS011;2419;51.276;6.472;2023-12-14T02:48:46;43.37;;;18.27;;
4810;SDS011;2419;51.276;6.472;2023-12-14T02:51:14;35.40;;;16.40;;
4810;SDS011;2419;51.276;6.472;2023-12-14T02:53:42;36.00;;;14.67;;
4810;SDS011;2419;51.276;6.472;2023-12-14T02:56:10;37.30;;;15.57;;
4810;SDS011;2419;51.276;6.472;2023-12-14T02:58:40;37.63;;;15.10;;
4810;SDS011;2419;51.276;6.472;2023-12-14T03:01:08;31.87;;;14.90;;
4810;SDS011;2419;51.276;6.472;2023-12-14T03:03:38;37.83;;;14.73;;
4810;SDS011;2419;51.276;6.472;2023-12-14T03:06:06;45.30;;;17.40;;
4810;SDS011;2419;51.276;6.472;2023-12-14T03:08:34;51.40;;;19.00;;
4810;SDS011;2419;51.276;6.472;2023-12-14T03:11:02;43.17;;;18.60;;
4810;SDS011;2419;51.276;6.472;2023-12-14T03:13:31;46.67;;;20.33;;
4810;SDS011;2419;51.276;6.472;2023-12-14T03:16:00;50.20;;;21.90;;
4810;SDS011;2419;51.276;6.472;2023-12-14T03:18:28;45.63;;;18.60;;
4810;SDS011;2419;51.276;6.472;2023-12-14T03:20:56;54.87;;;21.50;;
4810;SDS011;2419;51.276;6.472;2023-12-14T03:23:24;43.93;;;19.03;;
4810;SDS011;2419;51.276;6.472;2023-12-14T03:25:52;48.00;;;20.53;;
4810;SDS011;2419;51.276;6.472;2023-12-14T03:28:20;47.47;;;18.43;;
4810;SDS011;2419;51.276;6.472;2023-12-14T03:30:48;48.80;;;18.30;;
4810;SDS011;2419;51.276;6.472;2023-12-14T03:33:18;41.13;;;18.03;;
4810;SDS011;2419;51.276;6.472;2023-12-14T03:35:46;48.10;;;19.73;;
4810;SDS011;2419;51.276;6.472;2023-12-14T03:38:14;51.17;;;19.07;;
4810;SDS011;2419;51.276;6.472;2023-12-14T03:40:42;43.40;;;17.77;;
4810;SDS011;2419;51.276;6.472;2023-12-14T03:43:10;48.73;;;16.37;;
4810;SDS011;2419;51.276;6.472;2023-12-14T03:45:38;39.63;;;16.53;;
4810;SDS011;2419;51.276;6.472;2023-12-14T03:48:06;35.57;;;16.13;;
4810;SDS011;2419;51.276;6.472;2023-12-14T03:50:36;44.73;;;17.93;;
4810;SDS011;2419;51.276;6.472;2023-12-14T03:53:04;35.70;;;15.47;;
4810;SDS011;2419;51.276;6.472;2023-12-14T03:55:32;44.23;;;16.00;;
4810;SDS011;2419;51.276;6.472;2023-12-14T03:58:00;44.43;;;18.10;;
4810;SDS011;2419;51.276;6.472;2023-12-14T04:00:28;39.27;;;15.20;;
4810;SDS011;2419;51.276;6.472;2023-12-14T04:02:56;33.93;;;14.50;;
4810;SDS011;2419;51.276;6.472;2023-12-14T04:05:24;41.00;;;16.40;;
4810;SDS011;2419;51.276;6.472;2023-12-14T04:07:54;37.60;;;14.27;;
4810;SDS011;2419;51.276;6.472;2023-12-14T04:10:22;43.00;;;15.67;;
4810;SDS011;2419;51.276;6.472;2023-12-14T04:12:50;44.63;;;16.07;;
4810;SDS011;2419;51.276;6.472;2023-12-14T04:15:18;35.90;;;15.10;;
4810;SDS011;2419;51.276;6.472;2023-12-14T04:17:46;40.17;;;14.40;;
4810;SDS011;2419;51.276;6.472;2023-12-14T04:20:14;47.80;;;17.13;;
4810;SDS011;2419;51.276;6.472;2023-12-14T04:22:43;49.30;;;18.00;;
4810;SDS011;2419;51.276;6.472;2023-12-14T04:25:12;39.53;;;16.67;;
4810;SDS011;2419;51.276;6.472;2023-12-14T04:27:41;43.50;;;16.83;;
4810;SDS011;2419;51.276;6.472;2023-12-14T04:30:09;39.43;;;15.90;;
4810;SDS011;2419;51.276;6.472;2023-12-14T04:32:38;42.40;;;16.97;;
4810;SDS011;2419;51.276;6.472;2023-12-14T04:35:06;42.27;;;15.97;;
4810;SDS011;2419;51.276;6.472;2023-12-14T04:37:35;37.30;;;15.03;;
4810;SDS011;2419;51.276;6.472;2023-12-14T04:40:04;49.33;;;16.30;;
4810;SDS011;2419;51.276;6.472;2023-12-14T04:42:34;38.10;;;14.63;;
4810;SDS011;2419;51.276;6.472;2023-12-14T04:45:03;46.90;;;15.83;;
4810;SDS011;2419;51.276;6.472;2023-12-14T04:47:31;38.67;;;16.03;;
4810;SDS011;2419;51.276;6.472;2023-12-14T04:50:00;41.43;;;15.90;;
4810;SDS011;2419;51.276;6.472;2023-12-14T04:52:28;41.33;;;17.30;;
4810;SDS011;2419;51.276;6.472;2023-12-14T04:54:56;45.43;;;17.60;;
4810;SDS011;2419;51.276;6.472;2023-12-14T04:57:24;41.43;;;16.97;;
4810;SDS011;2419;51.276;6.472;2023-12-14T04:59:54;44.77;;;15.70;;
4810;SDS011;2419;51.276;6.472;2023-12-14T05:02:22;48.03;;;17.00;;
4810;SDS011;2419;51.276;6.472;2023-12-14T05:04:50;42.20;;;17.67;;
4810;SDS011;2419;51.276;6.472;2023-12-14T05:07:18;37.77;;;16.67;;
4810;SDS011;2419;51.276;6.472;2023-12-14T05:09:46;34.30;;;15.23;;
4810;SDS011;2419;51.276;6.472;2023-12-14T05:12:14;41.97;;;16.03;;
4810;SDS011;2419;51.276;6.472;2023-12-14T05:14:42;39.37;;;15.80;;
4810;SDS011;2419;51.276;6.472;2023-12-14T05:17:12;44.80;;;15.40;;
4810;SDS011;2419;51.276;6.472;2023-12-14T05:19:40;38.87;;;14.77;;
4810;SDS011;2419;51.276;6.472;2023-12-14T05:22:08;35.27;;;15.20;;
4810;SDS011;2419;51.276;6.472;2023-12-14T05:24:36;42.67;;;15.20;;
4810;SDS011;2419;51.276;6.472;2023-12-14T05:27:04;37.60;;;14.00;;
4810;SDS011;2419;51.276;6.472;2023-12-14T05:29:32;39.37;;;15.00;;
4810;SDS011;2419;51.276;6.472;2023-12-14T05:32:01;37.03;;;15.20;;
4810;SDS011;2419;51.276;6.472;2023-12-14T05:34:30;37.60;;;15.47;;
4810;SDS011;2419;51.276;6.472;2023-12-14T05:36:58;39.93;;;12.53;;
4810;SDS011;2419;51.276;6.472;2023-12-14T05:39:26;34.60;;;14.47;;
4810;SDS011;2419;51.276;6.472;2023-12-14T05:41:54;29.17;;;11.90;;
4810;SDS011;2419;51.276;6.472;2023-12-14T05:44:22;28.03;;;12.67;;
4810;SDS011;2419;51.276;6.472;2023-12-14T05:46:51;34.97;;;14.00;;
4810;SDS011;2419;51.276;6.472;2023-12-14T05:49:19;36.77;;;14.80;;
4810;SDS011;2419;51.276;6.472;2023-12-14T05:51:48;36.40;;;15.23;;
4810;SDS011;2419;51.276;6.472;2023-12-14T05:54:16;32.93;;;13.90;;
4810;SDS011;2419;51.276;6.472;2023-12-14T05:56:44;38.27;;;15.27;;
4810;SDS011;2419;51.276;6.472;2023-12-14T05:59:12;39.07;;;14.57;;
4810;SDS011;2419;51.276;6.472;2023-12-14T06:01:40;33.83;;;14.17;;
4810;SDS011;2419;51.276;6.472;2023-12-14T06:04:09;33.03;;;13.90;;
4810;SDS011;2419;51.276;6.472;2023-12-14T06:06:37;39.23;;;14.20;;
4810;SDS011;2419;51.276;6.472;2023-12-14T06:09:07;35.40;;;15.00;;
4810;SDS011;2419;51.276;6.472;2023-12-14T06:11:35;33.77;;;14.60;;
4810;SDS011;2419;51.276;6.472;2023-12-14T06:14:03;35.43;;;14.30;;
4810;SDS011;2419;51.276;6.472;2023-12-14T06:16:31;32.77;;;13.70;;
4810;SDS011;2419;51.276;6.472;2023-12-14T06:18:59;28.77;;;12.77;;
4810;SDS011;2419;51.276;6.472;2023-12-14T06:21:28;31.27;;;14.00;;
4810;SDS011;2419;51.276;6.472;2023-12-14T06:23:56;39.20;;;11.87;;
4810;SDS011;2419;51.276;6.472;2023-12-14T06:26:26;28.70;;;12.50;;
4810;SDS011;2419;51.276;6.472;2023-12-14T06:28:55;29.97;;;14.27;;
4810;SDS011;2419;51.276;6.472;2023-12-14T06:31:23;35.90;;;15.30;;
4810;SDS011;2419;51.276;6.472;2023-12-14T06:33:51;36.33;;;15.60;;
4810;SDS011;2419;51.276;6.472;2023-12-14T06:36:23;35.97;;;15.07;;
4810;SDS011;2419;51.276;6.472;2023-12-14T06:38:56;44.60;;;17.17;;
4810;SDS011;2419;51.276;6.472;2023-12-14T06:41:27;33.77;;;15.10;;
4810;SDS011;2419;51.276;6.472;2023-12-14T06:43:56;31.70;;;14.37;;
4810;SDS011;2419;51.276;6.472;2023-12-14T06:46:24;37.00;;;16.07;;
4810;SDS011;2419;51.276;6.472;2023-12-14T06:48:52;42.53;;;16.53;;
4810;SDS011;2419;51.276;6.472;2023-12-14T06:51:21;36.20;;;14.73;;
4810;SDS011;2419;51.276;6.472;2023-12-14T06:53:50;41.27;;;17.10;;
4810;SDS011;2419;51.276;6.472;2023-12-14T06:56:18;38.83;;;16.53;;
4810;SDS011;2419;51.276;6.472;2023-12-14T06:58:48;39.30;;;15.60;;
4810;SDS011;2419;51.276;6.472;2023-12-14T07:01:16;36.83;;;16.10;;
4810;SDS011;2419;51.276;6.472;2023-12-14T07:03:45;36.13;;;15.20;;
4810;SDS011;2419;51.276;6.472;2023-12-14T07:06:14;36.20;;;16.03;;
4810;SDS011;2419;51.276;6.472;2023-12-14T07:08:43;40.07;;;18.47;;
4810;SDS011;2419;51.276;6.472;2023-12-14T07:11:13;44.43;;;19.23;;
4810;SDS011;2419;51.276;6.472;2023-12-14T07:13:42;42.60;;;16.53;;
4810;SDS011;2419;51.276;6.472;2023-12-14T07:16:11;34.80;;;15.20;;
4810;SDS011;2419;51.276;6.472;2023-12-14T07:18:40;40.57;;;15.87;;
4810;SDS011;2419;51.276;6.472;2023-12-14T07:21:09;33.43;;;14.43;;
4810;SDS011;2419;51.276;6.472;2023-12-14T07:23:37;36.10;;;16.30;;
4810;SDS011;2419;51.276;6.472;2023-12-14T07:26:05;38.13;;;16.90;;
4810;SDS011;2419;51.276;6.472;2023-12-14T07:28:34;36.73;;;14.87;;
4810;SDS011;2419;51.276;6.472;2023-12-14T07:31:02;33.27;;;15.90;;
4810;SDS011;2419;51.276;6.472;2023-12-14T07:33:32;34.07;;;16.10;;
4810;SDS011;2419;51.276;6.472;2023-12-14T07:36:02;34.80;;;16.90;;
4810;SDS011;2419;51.276;6.472;2023-12-14T07:38:31;30.43;;;14.70;;
4810;SDS011;2419;51.276;6.472;2023-12-14T07:40:59;32.10;;;14.63;;
4810;SDS011;2419;51.276;6.472;2023-12-14T07:43:27;40.47;;;17.40;;
4810;SDS011;2419;51.276;6.472;2023-12-14T07:45:55;33.13;;;15.37;;
4810;SDS011;2419;51.276;6.472;2023-12-14T07:48:23;31.20;;;15.27;;
4810;SDS011;2419;51.276;6.472;2023-12-14T07:50:53;28.90;;;14.93;;
4810;SDS011;2419;51.276;6.472;2023-12-14T07:53:21;32.43;;;14.90;;
4810;SDS011;2419;51.276;6.472;2023-12-14T07:55:49;35.87;;;15.37;;
4810;SDS011;2419;51.276;6.472;2023-12-14T07:58:17;35.53;;;15.97;;
4810;SDS011;2419;51.276;6.472;2023-12-14T08:00:45;29.77;;;14.07;;
4810;SDS011;2419;51.276;6.472;2023-12-14T08:03:13;33.17;;;15.70;;
4810;SDS011;2419;51.276;6.472;2023-12-14T08:05:41;36.40;;;15.13;;
4810;SDS011;2419;51.276;6.472;2023-12-14T08:08:11;35.10;;;15.90;;
4810;SDS011;2419;51.276;6.472;2023-12-14T08:10:39;36.23;;;16.30;;
4810;SDS011;2419;51.276;6.472;2023-12-14T08:13:07;30.70;;;14.53;;
4810;SDS011;2419;51.276;6.472;2023-12-14T08:15:35;38.40;;;15.80;;
4810;SDS011;2419;51.276;6.472;2023-12-14T08:18:03;29.17;;;14.30;;
4810;SDS011;2419;51.276;6.472;2023-12-14T08:20:32;36.47;;;16.40;;
4810;SDS011;2419;51.276;6.472;2023-12-14T08:23:00;34.00;;;15.80;;
4810;SDS011;2419;51.276;6.472;2023-12-14T08:25:29;29.30;;;14.43;;
4810;SDS011;2419;51.276;6.472;2023-12-14T08:27:58;35.30;;;16.33;;
4810;SDS011;2419;51.276;6.472;2023-12-14T08:30:30;32.80;;;15.03;;
4810;SDS011;2419;51.276;6.472;2023-12-14T08:32:58;32.63;;;15.73;;
4810;SDS011;2419;51.276;6.472;2023-12-14T08:35:26;32.53;;;15.80;;
4810;SDS011;2419;51.276;6.472;2023-12-14T08:37:54;29.47;;;14.03;;
4810;SDS011;2419;51.276;6.472;2023-12-14T08:40:22;31.90;;;15.10;;
4810;SDS011;2419;51.276;6.472;2023-12-14T08:42:52;34.77;;;14.97;;
4810;SDS011;2419;51.276;6.472;2023-12-14T08:45:20;31.00;;;13.23;;
4810;SDS011;2419;51.276;6.472;2023-12-14T08:47:48;27.10;;;12.50;;
4810;SDS011;2419;51.276;6.472;2023-12-14T08:50:16;29.67;;;14.10;;
4810;SDS011;2419;51.276;6.472;2023-12-14T08:52:44;25.00;;;14.03;;
4810;SDS011;2419;51.276;6.472;2023-12-14T08:55:13;23.50;;;13.40;;
4810;SDS011;2419;51.276;6.472;2023-12-14T08:57:41;26.20;;;13.97;;
4810;SDS011;2419;51.276;6.472;2023-12-14T09:00:11;29.17;;;14.23;;
4810;SDS011;2419;51.276;6.472;2023-12-14T09:02:40;29.67;;;14.73;;
4810;SDS011;2419;51.276;6.472;2023-12-14T09:05:08;28.07;;;14.23;;
4810;SDS011;2419;51.276;6.472;2023-12-14T09:07:41;26.03;;;13.03;;
4810;SDS011;2419;51.276;6.472;2023-12-14T09:10:09;30.10;;;14.07;;
4810;SDS011;2419;51.276;6.472;2023-12-14T09:12:37;29.47;;;12.80;;
4810;SDS011;2419;51.276;6.472;2023-12-14T09:15:05;26.80;;;13.57;;
4810;SDS011;2419;51.276;6.472;2023-12-14T09:17:35;28.23;;;14.07;;
4810;SDS011;2419;51.276;6.472;2023-12-14T09:20:04;30.97;;;13.37;;
4810;SDS011;2419;51.276;6.472;2023-12-14T09:22:33;27.92;;;14.68;;
4810;SDS011;2419;51.276;6.472;2023-12-14T09:25:01;28.40;;;14.67;;
4810;SDS011;2419;51.276;6.472;2023-12-14T09:27:30;25.53;;;12.90;;
4810;SDS011;2419;51.276;6.472;2023-12-14T09:29:58;34.17;;;14.00;;
4810;SDS011;2419;51.276;6.472;2023-12-14T09:32:26;29.30;;;13.00;;
4810;SDS011;2419;51.276;6.472;2023-12-14T09:34:55;26.30;;;13.40;;
4810;SDS011;2419;51.276;6.472;2023-12-14T09:37:24;23.67;;;12.07;;
4810;SDS011;2419;51.276;6.472;2023-12-14T09:39:52;27.47;;;13.40;;
4810;SDS011;2419;51.276;6.472;2023-12-14T09:42:20;21.90;;;13.20;;
4810;SDS011;2419;51.276;6.472;2023-12-14T09:44:49;23.70;;;13.97;;
4810;SDS011;2419;51.276;6.472;2023-12-14T09:47:18;27.73;;;13.40;;
4810;SDS011;2419;51.276;6.472;2023-12-14T09:49:46;22.37;;;12.20;;
4810;SDS011;2419;51.276;6.472;2023-12-14T09:52:18;29.30;;;14.23;;
4810;SDS011;2419;51.276;6.472;2023-12-14T09:54:46;24.40;;;12.87;;
4810;SDS011;2419;51.276;6.472;2023-12-14T09:57:14;20.60;;;11.97;;
4810;SDS011;2419;51.276;6.472;2023-12-14T09:59:42;22.43;;;11.37;;
4810;SDS011;2419;51.276;6.472;2023-12-14T10:02:18;25.50;;;13.30;;
4810;SDS011;2419;51.276;6.472;2023-12-14T10:04:47;22.83;;;12.40;;
4810;SDS011;2419;51.276;6.472;2023-12-14T10:07:15;21.63;;;11.27;;
4810;SDS011;2419;51.276;6.472;2023-12-14T10:09:45;23.20;;;12.63;;
4810;SDS011;2419;51.276;6.472;2023-12-14T10:12:13;23.40;;;12.30;;
4810;SDS011;2419;51.276;6.472;2023-12-14T10:14:41;22.03;;;11.10;;
4810;SDS011;2419;51.276;6.472;2023-12-14T10:17:17;22.10;;;11.30;;
4810;SDS011;2419;51.276;6.472;2023-12-14T10:19:48;18.50;;;11.30;;
4810;SDS011;2419;51.276;6.472;2023-12-14T10:22:16;18.50;;;10.10;;
4810;SDS011;2419;51.276;6.472;2023-12-14T10:24:47;19.03;;;10.80;;
4810;SDS011;2419;51.276;6.472;2023-12-14T10:27:16;19.97;;;10.77;;
4810;SDS011;2419;51.276;6.472;2023-12-14T10:29:44;17.47;;;10.07;;
4810;SDS011;2419;51.276;6.472;2023-12-14T10:32:13;20.50;;;11.50;;
4810;SDS011;2419;51.276;6.472;2023-12-14T10:34:41;17.73;;;10.07;;
4810;SDS011;2419;51.276;6.472;2023-12-14T10:37:09;29.73;;;12.40;;
4810;SDS011;2419;51.276;6.472;2023-12-14T10:39:39;19.00;;;11.27;;
4810;SDS011;2419;51.276;6.472;2023-12-14T10:42:11;25.50;;;11.68;;
4810;SDS011;2419;51.276;6.472;2023-12-14T10:44:46;20.93;;;12.10;;
4810;SDS011;2419;51.276;6.472;2023-12-14T10:47:21;22.43;;;11.23;;
4810;SDS011;2419;51.276;6.472;2023-12-14T10:49:50;20.77;;;12.10;;
4810;SDS011;2419;51.276;6.472;2023-12-14T10:52:18;28.00;;;12.60;;
4810;SDS011;2419;51.276;6.472;2023-12-14T10:54:49;21.23;;;11.80;;
4810;SDS011;2419;51.276;6.472;2023-12-14T10:57:25;18.67;;;10.97;;
4810;SDS011;2419;51.276;6.472;2023-12-14T10:59:57;21.67;;;11.03;;
4810;SDS011;2419;51.276;6.472;2023-12-14T11:02:27;24.00;;;12.47;;
4810;SDS011;2419;51.276;6.472;2023-12-14T11:04:55;22.55;;;12.90;;
4810;SDS011;2419;51.276;6.472;2023-12-14T11:07:44;21.73;;;12.50;;
4810;SDS011;2419;51.276;6.472;2023-12-14T11:10:20;22.10;;;12.33;;
4810;SDS011;2419;51.276;6.472;2023-12-14T11:12:57;21.37;;;11.00;;
4810;SDS011;2419;51.276;6.472;2023-12-14T11:15:28;20.73;;;10.33;;
4810;SDS011;2419;51.276;6.472;2023-12-14T11:20:48;18.93;;;9.90;;
4810;SDS011;2419;51.276;6.472;2023-12-14T11:23:18;15.97;;;8.63;;
4810;SDS011;2419;51.276;6.472;2023-12-14T11:25:56;15.73;;;9.57;;
4810;SDS011;2419;51.276;6.472;2023-12-14T11:28:27;20.10;;;8.70;;
4810;SDS011;2419;51.276;6.472;2023-12-14T11:30:57;24.33;;;10.93;;
4810;SDS011;2419;51.276;6.472;2023-12-14T11:33:25;25.70;;;12.10;;
4810;SDS011;2419;51.276;6.472;2023-12-14T11:35:55;18.43;;;9.97;;
4810;SDS011;2419;51.276;6.472;2023-12-14T11:38:24;16.23;;;7.50;;
4810;SDS011;2419;51.276;6.472;2023-12-14T11:40:52;20.47;;;8.60;;
4810;SDS011;2419;51.276;6.472;2023-12-14T11:43:20;19.80;;;8.90;;
4810;SDS011;2419;51.276;6.472;2023-12-14T11:45:51;16.77;;;8.60;;
4810;SDS011;2419;51.276;6.472;2023-12-14T11:48:21;24.27;;;8.80;;
4810;SDS011;2419;51.276;6.472;2023-12-14T11:50:49;15.30;;;7.90;;
4810;SDS011;2419;51.276;6.472;2023-12-14T11:53:17;16.10;;;9.20;;
4810;SDS011;2419;51.276;6.472;2023-12-14T11:55:46;16.30;;;8.63;;
4810;SDS011;2419;51.276;6.472;2023-12-14T11:58:14;12.50;;;7.63;;
4810;SDS011;2419;51.276;6.472;2023-12-14T12:00:43;12.10;;;6.87;;
4810;SDS011;2419;51.276;6.472;2023-12-14T12:03:15;14.93;;;8.07;;
4810;SDS011;2419;51.276;6.472;2023-12-14T12:05:46;17.90;;;7.30;;
4810;SDS011;2419;51.276;6.472;2023-12-14T12:08:19;13.27;;;8.50;;
4810;SDS011;2419;51.276;6.472;2023-12-14T12:10:48;14.77;;;6.80;;
4810;SDS011;2419;51.276;6.472;2023-12-14T12:13:17;14.53;;;7.20;;
4810;SDS011;2419;51.276;6.472;2023-12-14T12:15:47;10.97;;;5.73;;
4810;SDS011;2419;51.276;6.472;2023-12-14T12:18:16;30.00;;;9.20;;
4810;SDS011;2419;51.276;6.472;2023-12-14T12:20:45;12.70;;;6.27;;
4810;SDS011;2419;51.276;6.472;2023-12-14T12:23:13;9.73;;;5.93;;
4810;SDS011;2419;51.276;6.472;2023-12-14T12:25:42;36.67;;;7.73;;
4810;SDS011;2419;51.276;6.472;2023-12-14T12:28:10;16.63;;;7.33;;
4810;SDS011;2419;51.276;6.472;2023-12-14T12:30:38;13.37;;;6.83;;
4810;SDS011;2419;51.276;6.472;2023-12-14T12:33:08;16.50;;;6.77;;
4810;SDS011;2419;51.276;6.472;2023-12-14T12:35:37;11.47;;;5.87;;
4810;SDS011;2419;51.276;6.472;2023-12-14T12:38:06;27.93;;;8.50;;
4810;SDS011;2419;51.276;6.472;2023-12-14T12:40:34;30.13;;;7.03;;
4810;SDS011;2419;51.276;6.472;2023-12-14T12:43:02;10.20;;;5.37;;
4810;SDS011;2419;51.276;6.472;2023-12-14T12:45:30;10.37;;;5.50;;
4810;SDS011;2419;51.276;6.472;2023-12-14T12:47:59;11.70;;;5.90;;
4810;SDS011;2419;51.276;6.472;2023-12-14T12:50:29;9.93;;;6.47;;
4810;SDS011;2419;51.276;6.472;2023-12-14T12:52:59;14.23;;;6.00;;
4810;SDS011;2419;51.276;6.472;2023-12-14T12:55:27;11.87;;;6.37;;
4810;SDS011;2419;51.276;6.472;2023-12-14T12:57:55;10.97;;;5.27;;
4810;SDS011;2419;51.276;6.472;2023-12-14T13:00:24;10.17;;;5.83;;
4810;SDS011;2419;51.276;6.472;2023-12-14T13:02:52;12.30;;;5.97;;
4810;SDS011;2419;51.276;6.472;2023-12-14T13:05:20;11.50;;;6.10;;
4810;SDS011;2419;51.276;6.472;2023-12-14T13:07:51;15.10;;;7.43;;
4810;SDS011;2419;51.276;6.472;2023-12-14T13:10:22;22.93;;;6.67;;
4810;SDS011;2419;51.276;6.472;2023-12-14T13:12:58;14.80;;;7.17;;
4810;SDS011;2419;51.276;6.472;2023-12-14T13:15:26;12.15;;;6.13;;
4810;SDS011;2419;51.276;6.472;2023-12-14T13:17:57;16.13;;;7.23;;
4810;SDS011;2419;51.276;6.472;2023-12-14T13:20:25;11.70;;;6.37;;
4810;SDS011;2419;51.276;6.472;2023-12-14T13:22:54;12.83;;;6.03;;
4810;SDS011;2419;51.276;6.472;2023-12-14T13:25:23;13.73;;;7.45;;
4810;SDS011;2419;51.276;6.472;2023-12-14T13:27:52;16.03;;;5.93;;
4810;SDS011;2419;51.276;6.472;2023-12-14T13:30:20;25.83;;;7.30;;
4810;SDS011;2419;51.276;6.472;2023-12-14T13:32:49;14.53;;;6.90;;
4810;SDS011;2419;51.276;6.472;2023-12-14T13:35:17;11.23;;;6.50;;
4810;SDS011;2419;51.276;6.472;2023-12-14T13:37:45;28.53;;;8.17;;
4810;SDS011;2419;51.276;6.472;2023-12-14T13:40:13;20.27;;;7.17;;
4810;SDS011;2419;51.276;6.472;2023-12-14T13:42:45;12.57;;;7.07;;
4810;SDS011;2419;51.276;6.472;2023-12-14T13:45:29;14.90;;;8.00;;
4810;SDS011;2419;51.276;6.472;2023-12-14T13:47:57;10.07;;;5.77;;
4810;SDS011;2419;51.276;6.472;2023-12-14T13:50:26;80.13;;;9.37;;
4810;SDS011;2419;51.276;6.472;2023-12-14T13:52:55;10.23;;;5.90;;
4810;SDS011;2419;51.276;6.472;2023-12-14T13:55:23;12.70;;;6.40;;
4810;SDS011;2419;51.276;6.472;2023-12-14T13:57:53;11.67;;;6.10;;
4810;SDS011;2419;51.276;6.472;2023-12-14T14:00:24;20.87;;;7.77;;
4810;SDS011;2419;51.276;6.472;2023-12-14T14:02:52;13.37;;;7.30;;
4810;SDS011;2419;51.276;6.472;2023-12-14T14:05:19;14.00;;;6.60;;
4810;SDS011;2419;51.276;6.472;2023-12-14T14:07:47;11.20;;;6.70;;
4810;SDS011;2419;51.276;6.472;2023-12-14T14:10:15;13.43;;;6.77;;
4810;SDS011;2419;51.276;6.472;2023-12-14T14:12:44;14.90;;;7.43;;
4810;SDS011;2419;51.276;6.472;2023-12-14T14:15:14;22.70;;;6.93;;
4810;SDS011;2419;51.276;6.472;2023-12-14T14:17:42;18.60;;;7.80;;
4810;SDS011;2419;51.276;6.472;2023-12-14T14:20:10;15.03;;;7.00;;
4810;SDS011;2419;51.276;6.472;2023-12-14T14:22:37;40.77;;;8.90;;
4810;SDS011;2419;51.276;6.472;2023-12-14T14:25:06;16.93;;;7.67;;
4810;SDS011;2419;51.276;6.472;2023-12-14T14:27:34;15.17;;;7.90;;
4810;SDS011;2419;51.276;6.472;2023-12-14T14:30:02;13.53;;;7.60;;
4810;SDS011;2419;51.276;6.472;2023-12-14T14:32:33;13.17;;;7.93;;
4810;SDS011;2419;51.276;6.472;2023-12-14T14:35:04;13.30;;;8.27;;
4810;SDS011;2419;51.276;6.472;2023-12-14T14:37:33;13.73;;;7.80;;
4810;SDS011;2419;51.276;6.472;2023-12-14T14:40:01;17.30;;;7.90;;
4810;SDS011;2419;51.276;6.472;2023-12-14T14:42:30;11.97;;;6.87;;
4810;SDS011;2419;51.276;6.472;2023-12-14T14:44:59;13.50;;;7.90;;
4810;SDS011;2419;51.276;6.472;2023-12-14T14:47:27;16.03;;;7.57;;
4810;SDS011;2419;51.276;6.472;2023-12-14T14:49:56;13.53;;;8.03;;
4810;SDS011;2419;51.276;6.472;2023-12-14T14:52:30;16.20;;;7.60;;
4810;SDS011;2419;51.276;6.472;2023-12-14T14:54:59;18.07;;;7.47;;
4810;SDS011;2419;51.276;6.472;2023-12-14T14:57:28;13.87;;;7.40;;
4810;SDS011;2419;51.276;6.472;2023-12-14T14:59:56;11.17;;;7.00;;
4810;SDS011;2419;51.276;6.472;2023-12-14T15:02:24;15.73;;;7.70;;